createdAt,value
2022-12-28T00:03:49.112Z,101196.66
2022-12-28T00:14:12.039Z,101193.88
2022-12-28T00:17:34.209Z,101199.97
2022-12-28T00:20:18.421Z,101199.94
2022-12-28T00:23:05.539Z,101208.66
2022-12-28T00:25:39.653Z,101200.66
2022-12-28T00:28:15.050Z,101192.72
2022-12-28T00:30:55.535Z,101185.66
2022-12-28T00:33:42.104Z,101177.81
2022-12-28T00:37:08.386Z,101184.47
2022-12-28T00:40:11.180Z,101171.31
2022-12-28T00:43:05.027Z,101162.38
2022-12-28T00:46:37.950Z,101161.38
2022-12-28T00:49:33.947Z,101158.59
2022-12-28T00:52:17.994Z,101167.38
2022-12-28T00:55:01.068Z,101177.06
2022-12-28T00:57:47.135Z,101169.31
2022-12-28T01:00:44.287Z,101162.09
2022-12-28T01:03:26.590Z,101165.53
2022-12-28T01:06:23.885Z,101161.19
2022-12-28T01:09:14.870Z,101153.38
2022-12-28T01:12:14.181Z,101159.53
2022-12-28T01:14:55.928Z,101156.00
2022-12-28T01:17:56.378Z,101147.22
2022-12-28T01:21:05.587Z,101151.56
2022-12-28T01:24:16.217Z,101154.25
2022-12-28T01:28:13.141Z,101138.41
2022-12-28T01:35:02.888Z,101109.28
2022-12-28T01:38:32.981Z,101124.09
2022-12-28T01:41:24.279Z,101108.50
2022-12-28T01:43:54.272Z,101115.38
2022-12-28T01:46:37.921Z,101104.63
2022-12-28T01:49:18.815Z,101113.53
2022-12-28T01:52:19.809Z,101104.63
2022-12-28T01:54:53.427Z,101104.69
2022-12-28T01:57:28.482Z,101088.09
2022-12-28T02:00:09.076Z,101090.75
2022-12-28T02:03:01.499Z,101089.84
2022-12-28T02:05:35.335Z,101077.63
2022-12-28T02:08:12.692Z,101068.78
2022-12-28T02:10:45.668Z,101064.31
2022-12-28T02:13:15.171Z,101061.53
2022-12-28T02:15:42.559Z,101047.53
2022-12-28T02:18:10.370Z,101050.38
2022-12-28T02:20:46.203Z,101042.34
2022-12-28T02:23:23.341Z,101046.78
2022-12-28T02:25:58.285Z,101036.25
2022-12-28T02:28:56.853Z,101040.72
2022-12-28T02:31:38.287Z,101024.22
2022-12-28T02:34:11.451Z,101021.53
2022-12-28T02:36:43.435Z,101018.94
2022-12-28T02:39:15.203Z,101015.44
2022-12-28T02:41:43.032Z,101011.09
2022-12-28T02:44:09.902Z,100996.16
2022-12-28T02:46:55.504Z,100998.97
2022-12-28T02:49:45.721Z,100993.78
2022-12-28T02:52:37.298Z,100983.34
2022-12-28T02:55:41.583Z,100974.63
2022-12-28T02:58:34.840Z,100971.25
2022-12-28T03:01:10.966Z,100966.75
2022-12-28T03:04:16.939Z,100959.84
2022-12-28T03:07:29.870Z,100940.69
2022-12-28T03:10:25.538Z,100934.56
2022-12-28T03:13:43.620Z,100936.19
2022-12-28T03:16:53.300Z,100918.72
2022-12-28T03:20:00.461Z,100907.47
2022-12-28T03:22:56.465Z,100897.88
2022-12-28T03:27:29.272Z,100903.25
2022-12-28T03:29:31.119Z,100890.03
2022-12-28T03:32:11.211Z,100881.16
2022-12-28T03:35:02.962Z,100879.34
2022-12-28T03:38:31.869Z,100876.94
2022-12-28T03:41:26.049Z,100881.28
2022-12-28T03:44:44.852Z,100886.72
2022-12-28T03:48:21.416Z,100892.66
2022-12-28T03:51:33.712Z,100884.09
2022-12-28T03:54:24.186Z,100877.16
2022-12-28T03:57:16.256Z,100860.66
2022-12-28T04:00:17.007Z,100844.94
2022-12-28T04:03:02.424Z,100843.16
2022-12-28T04:06:53.252Z,100838.00
2022-12-28T04:12:32.911Z,100832.63
2022-12-28T04:15:42.209Z,100830.81
2022-12-28T04:18:26.833Z,100817.88
2022-12-28T04:21:11.362Z,100815.88
2022-12-28T04:23:53.343Z,100817.88
2022-12-28T04:26:24.872Z,100809.06
2022-12-28T04:29:01.081Z,100806.63
2022-12-28T04:31:33.728Z,100805.56
2022-12-28T04:34:07.342Z,100785.47
2022-12-28T04:36:39.705Z,100796.25
2022-12-28T04:39:11.019Z,100786.50
2022-12-28T04:41:39.077Z,100788.22
2022-12-28T04:44:06.149Z,100794.41
2022-12-28T04:46:33.189Z,100791.75
2022-12-28T04:49:00.798Z,100796.63
2022-12-28T04:51:28.868Z,100777.31
2022-12-28T04:53:57.173Z,100775.66
2022-12-28T04:56:25.987Z,100777.91
2022-12-28T04:58:58.334Z,100771.44
2022-12-28T05:01:25.370Z,100780.41
2022-12-28T05:03:56.531Z,100764.69
2022-12-28T05:06:41.923Z,100759.50
2022-12-28T05:09:13.811Z,100757.81
2022-12-28T05:11:45.166Z,100765.59
2022-12-28T05:14:12.116Z,100768.22
2022-12-28T05:16:38.884Z,100769.22
2022-12-28T05:19:05.937Z,100776.09
2022-12-28T05:21:32.929Z,100773.63
2022-12-28T05:23:59.789Z,100777.81
2022-12-28T05:26:29.165Z,100765.63
2022-12-28T05:28:56.917Z,100754.16
2022-12-28T05:31:24.445Z,100742.69
2022-12-28T05:33:51.989Z,100741.03
2022-12-28T05:36:23.476Z,100736.53
2022-12-28T05:38:50.520Z,100741.97
2022-12-28T05:41:27.875Z,100731.41
2022-12-28T05:43:55.736Z,100730.31
2022-12-28T05:46:25.878Z,100736.53
2022-12-28T05:48:52.979Z,100731.72
2022-12-28T05:51:21.459Z,100729.16
2022-12-28T05:54:27.945Z,100718.44
2022-12-28T05:56:54.785Z,100719.13
2022-12-28T05:59:23.335Z,100704.38
2022-12-28T06:01:50.335Z,100709.56
2022-12-28T06:04:19.368Z,100692.59
2022-12-28T06:06:47.114Z,100703.28
2022-12-28T06:09:14.625Z,100685.03
2022-12-28T06:11:41.652Z,100686.00
2022-12-28T06:14:08.900Z,100699.16
2022-12-28T06:16:38.227Z,100679.25
2022-12-28T06:19:07.468Z,100693.22
2022-12-28T06:21:38.869Z,100678.25
2022-12-28T06:24:08.804Z,100684.56
2022-12-28T06:26:37.244Z,100666.97
2022-12-28T06:29:09.206Z,100674.72
2022-12-28T06:31:41.839Z,100660.56
2022-12-28T06:34:09.712Z,100656.16
2022-12-28T06:36:41.798Z,100653.47
2022-12-28T06:39:10.549Z,100648.09
2022-12-28T06:41:38.272Z,100647.25
2022-12-28T06:44:12.418Z,100650.59
2022-12-28T06:46:39.618Z,100648.03
2022-12-28T06:49:06.604Z,100641.91
2022-12-28T06:51:42.335Z,100639.22
2022-12-28T06:54:10.049Z,100634.50
2022-12-28T06:56:40.339Z,100620.50
2022-12-28T06:59:07.299Z,100620.09
2022-12-28T07:01:36.619Z,100630.63
2022-12-28T07:04:05.126Z,100630.06
2022-12-28T07:06:39.349Z,100621.50
2022-12-28T07:09:08.372Z,100616.78
2022-12-28T07:11:52.377Z,100608.25
2022-12-28T07:14:21.428Z,100605.75
2022-12-28T07:16:48.699Z,100592.78
2022-12-28T07:19:15.823Z,100600.59
2022-12-28T07:21:42.602Z,100599.41
2022-12-28T07:24:09.607Z,100583.06
2022-12-28T07:26:37.691Z,100595.03
2022-12-28T07:29:06.070Z,100580.38
2022-12-28T07:31:41.656Z,100586.31
2022-12-28T07:34:15.058Z,100584.66
2022-12-28T07:36:42.103Z,100565.31
2022-12-28T07:39:09.190Z,100568.66
2022-12-28T07:41:38.963Z,100589.00
2022-12-28T07:44:09.183Z,100566.97
2022-12-28T07:46:38.392Z,100582.50
2022-12-28T07:49:05.792Z,100561.50
2022-12-28T07:51:35.246Z,100556.19
2022-12-28T07:54:02.565Z,100566.78
2022-12-28T07:59:05.755Z,100543.78
2022-12-28T08:01:34.697Z,100549.88
2022-12-28T08:04:04.903Z,100542.94
2022-12-28T08:06:34.828Z,100551.53
2022-12-28T08:09:02.428Z,100544.75
2022-12-28T08:11:33.975Z,100547.31
2022-12-28T08:14:01.628Z,100536.56
2022-12-28T08:16:30.876Z,100547.22
2022-12-28T08:18:57.945Z,100546.16
2022-12-28T08:21:30.253Z,100544.31
2022-12-28T08:23:57.743Z,100535.50
2022-12-28T08:26:36.100Z,100537.22
2022-12-28T08:29:09.293Z,100538.00
2022-12-28T08:31:38.015Z,100514.13
2022-12-28T08:34:06.312Z,100527.16
2022-12-28T08:36:33.793Z,100516.31
2022-12-28T08:39:01.295Z,100518.88
2022-12-28T08:41:29.766Z,100522.63
2022-12-28T08:43:56.538Z,100511.97
2022-12-28T08:46:28.293Z,100502.47
2022-12-28T08:48:56.795Z,100510.13
2022-12-28T08:51:28.035Z,100503.06
2022-12-28T08:53:54.940Z,100515.41
2022-12-28T08:56:24.936Z,100514.41
2022-12-28T08:58:52.463Z,100500.34
2022-12-28T09:01:30.482Z,100503.59
2022-12-28T09:03:59.342Z,100495.66
2022-12-28T09:06:28.446Z,100511.25
2022-12-28T09:09:05.345Z,100493.69
2022-12-28T09:11:38.589Z,100521.59
2022-12-28T09:14:07.332Z,100483.94
2022-12-28T09:16:34.471Z,100475.88
2022-12-28T09:19:03.942Z,100503.03
2022-12-28T09:21:34.103Z,100494.31
2022-12-28T09:24:01.225Z,100503.88
2022-12-28T09:26:31.882Z,100496.84
2022-12-28T09:29:01.111Z,100462.72
2022-12-28T09:31:30.060Z,100471.34
2022-12-28T09:34:35.089Z,100456.41
2022-12-28T09:36:51.063Z,100454.41
2022-12-28T09:39:20.658Z,100453.22
2022-12-28T09:41:56.290Z,100446.31
2022-12-28T09:45:01.459Z,100449.69
2022-12-28T09:47:37.306Z,100450.25
2022-12-28T09:50:07.585Z,100439.66
2022-12-28T09:52:38.030Z,100432.50
2022-12-28T09:55:15.216Z,100446.56
2022-12-28T09:57:51.288Z,100425.34
2022-12-28T10:00:21.026Z,100431.19
2022-12-28T10:03:03.965Z,100438.16
2022-12-28T10:05:33.239Z,100428.34
2022-12-28T10:08:00.266Z,100422.78
2022-12-28T10:10:27.550Z,100433.31
2022-12-28T10:12:54.715Z,100410.31
2022-12-28T10:15:23.521Z,100413.75
2022-12-28T10:17:50.657Z,100404.97
2022-12-28T10:20:24.520Z,100403.06
2022-12-28T10:22:55.461Z,100394.97
2022-12-28T10:25:26.969Z,100400.25
2022-12-28T10:27:58.605Z,100394.78
2022-12-28T10:30:27.496Z,100401.78
2022-12-28T10:33:03.832Z,100410.44
2022-12-28T10:35:36.564Z,100395.41
2022-12-28T10:38:06.252Z,100403.97
2022-12-28T10:40:35.850Z,100402.19
2022-12-28T10:43:08.514Z,100406.66
2022-12-28T10:45:42.322Z,100397.63
2022-12-28T10:48:21.511Z,100388.72
2022-12-28T10:51:11.892Z,100353.78
2022-12-28T10:53:47.221Z,100380.00
2022-12-28T10:56:13.983Z,100371.88
2022-12-28T10:58:45.671Z,100359.47
2022-12-28T11:01:12.488Z,100369.09
2022-12-28T11:03:59.421Z,100368.22
2022-12-28T11:06:36.147Z,100370.72
2022-12-28T11:09:03.089Z,100364.38
2022-12-28T11:11:30.352Z,100375.00
2022-12-28T11:14:01.112Z,100349.25
2022-12-28T11:16:31.541Z,100355.44
2022-12-28T11:19:01.173Z,100332.47
2022-12-28T11:21:28.279Z,100337.28
2022-12-28T11:23:55.425Z,100338.06
2022-12-28T11:26:22.996Z,100335.06
2022-12-28T11:28:53.763Z,100334.88
2022-12-28T11:31:31.433Z,100327.84
2022-12-28T11:34:04.711Z,100320.69
2022-12-28T11:36:33.899Z,100314.84
2022-12-28T11:39:26.653Z,100320.66
2022-12-28T11:44:50.608Z,100317.22
2022-12-28T11:47:17.379Z,100336.47
2022-12-28T11:49:45.911Z,100312.22
2022-12-28T11:52:20.835Z,100315.41
2022-12-28T11:54:58.554Z,100320.53
2022-12-28T11:57:40.053Z,100294.34
2022-12-28T12:00:22.794Z,100328.28
2022-12-28T12:02:52.957Z,100283.47
2022-12-28T12:05:38.412Z,100295.47
2022-12-28T12:08:17.299Z,100290.97
2022-12-28T12:10:48.637Z,100284.78
2022-12-28T12:13:27.717Z,100290.66
2022-12-28T12:15:57.821Z,100274.72
2022-12-28T12:18:26.396Z,100275.97
2022-12-28T12:20:57.564Z,100299.75
2022-12-28T12:23:36.447Z,100261.53
2022-12-28T12:26:34.129Z,100267.50
2022-12-28T12:29:05.244Z,100268.28
2022-12-28T12:31:36.172Z,100256.69
2022-12-28T12:34:12.088Z,100260.25
2022-12-28T12:37:01.730Z,100265.72
2022-12-28T12:39:47.288Z,100247.97
2022-12-28T12:42:30.025Z,100260.25
2022-12-28T12:45:01.255Z,100250.47
2022-12-28T12:47:54.158Z,100258.03
2022-12-28T12:50:57.774Z,100252.50
2022-12-28T12:53:30.612Z,100260.16
2022-12-28T12:56:19.158Z,100257.78
2022-12-28T12:59:04.169Z,100262.91
2022-12-28T13:01:46.775Z,100234.59
2022-12-28T13:04:25.875Z,100244.16
2022-12-28T13:06:57.423Z,100246.69
2022-12-28T13:09:26.870Z,100248.91
2022-12-28T13:11:54.217Z,100242.59
2022-12-28T13:14:23.349Z,100251.38
2022-12-28T13:16:52.201Z,100245.06
2022-12-28T13:19:24.541Z,100250.16
2022-12-28T13:21:51.757Z,100251.88
2022-12-28T13:24:30.003Z,100232.75
2022-12-28T13:26:58.729Z,100243.22
2022-12-28T13:29:35.010Z,100234.69
2022-12-28T13:32:01.860Z,100236.81
2022-12-28T13:34:41.891Z,100250.44
2022-12-28T13:37:19.472Z,100239.84
2022-12-28T13:39:48.814Z,100244.25
2022-12-28T13:43:00.248Z,100246.16
2022-12-28T13:45:27.518Z,100251.38
2022-12-28T13:47:57.637Z,100239.06
2022-12-28T13:50:30.593Z,100250.53
2022-12-28T13:53:03.881Z,100243.63
2022-12-28T13:55:34.166Z,100250.88
2022-12-28T13:58:04.397Z,100245.78
2022-12-28T14:00:32.196Z,100247.44
2022-12-28T14:02:59.247Z,100238.47
2022-12-28T14:05:28.488Z,100250.19
2022-12-28T14:07:56.617Z,100235.53
2022-12-28T14:10:23.686Z,100238.97
2022-12-28T14:12:50.916Z,100243.97
2022-12-28T14:15:18.579Z,100253.31
2022-12-28T14:17:52.457Z,100253.22
2022-12-28T14:20:19.591Z,100245.69
2022-12-28T14:23:21.516Z,100250.97
2022-12-28T14:25:48.469Z,100249.94
2022-12-28T14:28:43.340Z,100255.38
2022-12-28T14:31:13.716Z,100248.03
2022-12-28T14:33:56.856Z,100251.63
2022-12-28T14:36:47.562Z,100250.88
2022-12-28T14:39:36.178Z,100246.06
2022-12-28T14:42:43.540Z,100250.78
2022-12-28T14:46:04.955Z,100239.50
2022-12-28T14:48:43.523Z,100249.16
2022-12-28T14:51:17.498Z,100250.09
2022-12-28T14:53:45.470Z,100256.25
2022-12-28T14:56:17.807Z,100268.81
2022-12-28T14:58:50.809Z,100287.22
2022-12-28T15:01:18.999Z,100254.44
2022-12-28T15:03:50.099Z,100265.13
2022-12-28T15:06:16.953Z,100257.28
2022-12-28T15:08:47.917Z,100251.22
2022-12-28T15:11:28.121Z,100258.22
2022-12-28T15:13:59.414Z,100270.69
2022-12-28T15:16:26.385Z,100254.06
2022-12-28T15:18:53.357Z,100249.69
2022-12-28T15:24:34.302Z,100242.88
2022-12-28T15:27:03.236Z,100254.16
2022-12-28T15:30:04.305Z,100254.59
2022-12-28T15:32:20.138Z,100251.84
2022-12-28T15:39:20.361Z,100261.75
2022-12-28T15:42:13.724Z,100253.66
2022-12-28T15:44:48.737Z,100261.00
2022-12-28T15:47:37.173Z,100259.19
2022-12-28T15:50:05.350Z,100260.06
2022-12-28T15:52:36.742Z,100277.44
2022-12-28T15:55:14.837Z,100265.34
2022-12-28T15:57:41.581Z,100266.28
2022-12-28T16:00:08.850Z,100255.53
2022-12-28T16:02:35.901Z,100259.03
2022-12-28T16:05:02.725Z,100256.72
2022-12-28T16:07:29.874Z,100252.28
2022-12-28T16:09:56.567Z,100247.38
2022-12-28T16:12:23.404Z,100248.13
2022-12-28T16:14:50.541Z,100234.91
2022-12-28T16:17:17.246Z,100242.41
2022-12-28T16:19:46.788Z,100247.53
2022-12-28T16:22:14.594Z,100246.88
2022-12-28T16:24:41.421Z,100244.22
2022-12-28T16:27:09.744Z,100239.78
2022-12-28T16:29:39.514Z,100251.78
2022-12-28T16:32:06.865Z,100242.41
2022-12-28T16:34:33.716Z,100244.13
2022-12-28T16:37:00.755Z,100244.28
2022-12-28T16:39:39.685Z,100240.72
2022-12-28T16:42:07.318Z,100236.28
2022-12-28T16:44:34.574Z,100240.56
2022-12-28T16:47:01.378Z,100244.78
2022-12-28T16:49:29.811Z,100235.25
2022-12-28T16:51:56.494Z,100229.88
2022-12-28T16:54:25.353Z,100240.38
2022-12-28T16:56:53.469Z,100233.56
2022-12-28T16:59:24.602Z,100242.13
2022-12-28T17:01:52.965Z,100230.53
2022-12-28T17:04:19.915Z,100229.59
2022-12-28T17:06:49.305Z,100233.13
2022-12-28T17:09:16.343Z,100213.75
2022-12-28T17:11:43.093Z,100225.94
2022-12-28T17:14:17.517Z,100228.47
2022-12-28T17:16:51.376Z,100217.75
2022-12-28T17:19:18.191Z,100223.03
2022-12-28T17:21:47.117Z,100224.91
2022-12-28T17:24:14.178Z,100223.09
2022-12-28T17:26:46.167Z,100221.22
2022-12-28T17:29:28.105Z,100230.88
2022-12-28T17:31:58.483Z,100213.31
2022-12-28T17:34:58.870Z,100217.75
2022-12-28T17:37:44.890Z,100219.81
2022-12-28T17:40:25.374Z,100225.09
2022-12-28T17:42:54.933Z,100246.25
2022-12-28T17:45:24.436Z,100219.97
2022-12-28T17:47:52.137Z,100224.41
2022-12-28T17:50:23.771Z,100220.06
2022-12-28T17:52:56.587Z,100206.25
2022-12-28T17:55:58.400Z,100242.41
2022-12-28T17:58:51.473Z,100223.66
2022-12-28T18:01:43.349Z,100216.59
2022-12-28T18:04:21.280Z,100194.69
2022-12-28T18:06:48.205Z,100197.22
2022-12-28T18:09:15.263Z,100205.09
2022-12-28T18:11:49.297Z,100188.56
2022-12-28T18:14:16.520Z,100198.94
2022-12-28T18:16:53.380Z,100191.88
2022-12-28T18:19:30.033Z,100191.00
2022-12-28T18:25:12.794Z,100177.44
2022-12-28T18:28:00.062Z,100177.44
2022-12-28T18:30:40.178Z,100171.22
2022-12-28T18:33:07.127Z,100186.06
2022-12-28T18:35:34.082Z,100174.63
2022-12-28T18:38:17.580Z,100181.63
2022-12-28T18:40:52.955Z,100184.50
2022-12-28T18:44:10.583Z,100175.63
2022-12-28T18:46:37.517Z,100164.41
2022-12-28T18:49:07.672Z,100163.53
2022-12-28T18:51:41.285Z,100160.81
2022-12-28T18:54:09.321Z,100150.06
2022-12-28T18:59:34.056Z,100162.31
2022-12-28T19:02:06.777Z,100164.63
2022-12-28T19:04:43.723Z,100161.50
2022-12-28T19:07:10.620Z,100177.00
2022-12-28T19:09:37.374Z,100155.09
2022-12-28T19:12:04.399Z,100152.44
2022-12-28T19:14:31.169Z,100156.97
2022-12-28T19:16:58.211Z,100170.19
2022-12-28T19:19:30.430Z,100160.66
2022-12-28T19:22:25.684Z,100158.75
2022-12-28T19:25:36.436Z,100164.13
2022-12-28T19:28:16.656Z,100163.44
2022-12-28T19:30:43.799Z,100166.09
2022-12-28T19:33:10.613Z,100166.00
2022-12-28T19:36:15.021Z,100162.53
2022-12-28T19:38:42.060Z,100148.72
2022-12-28T19:41:17.666Z,100157.03
2022-12-28T19:43:44.987Z,100151.84
2022-12-28T19:46:20.711Z,100149.59
2022-12-28T19:48:47.675Z,100152.88
2022-12-28T19:51:14.857Z,100148.72
2022-12-28T19:53:45.697Z,100148.91
2022-12-28T19:56:15.120Z,100155.13
2022-12-28T19:58:51.015Z,100151.44
2022-12-28T20:01:29.073Z,100134.66
2022-12-28T20:03:58.835Z,100125.31
2022-12-28T20:06:28.822Z,100126.16
2022-12-28T20:08:58.175Z,100103.19
2022-12-28T20:11:25.320Z,100090.28
2022-12-28T20:14:03.607Z,100095.66
2022-12-28T20:16:32.396Z,100080.28
2022-12-28T20:19:06.872Z,100057.44
2022-12-28T20:21:35.119Z,100057.53
2022-12-28T20:24:02.622Z,100051.38
2022-12-28T20:26:34.697Z,100061.09
2022-12-28T20:29:06.338Z,100082.34
2022-12-28T20:31:36.104Z,100055.81
2022-12-28T20:34:05.892Z,100071.94
2022-12-28T20:36:36.051Z,100089.41
2022-12-28T20:39:03.370Z,100094.88
2022-12-28T20:41:50.729Z,100105.44
2022-12-28T20:44:21.590Z,100116.94
2022-12-28T20:46:48.609Z,100106.53
2022-12-28T20:49:15.368Z,100104.59
2022-12-28T20:51:42.803Z,100078.28
2022-12-28T20:54:11.035Z,100079.94
2022-12-28T20:56:38.834Z,100069.72
2022-12-28T20:59:06.078Z,100067.84
2022-12-28T21:01:34.423Z,100063.47
2022-12-28T21:04:01.686Z,100067.09
2022-12-28T21:06:28.770Z,100052.25
2022-12-28T21:08:55.775Z,100045.84
2022-12-28T21:11:23.002Z,100046.78
2022-12-28T21:13:50.024Z,100036.41
2022-12-28T21:16:20.516Z,100027.63
2022-12-28T21:18:49.800Z,100021.75
2022-12-28T21:21:21.999Z,100013.06
2022-12-28T21:23:49.010Z,99989.41
2022-12-28T21:26:19.604Z,99990.81
2022-12-28T21:28:49.713Z,99977.81
2022-12-28T21:31:16.855Z,99981.47
2022-12-28T21:33:46.755Z,99979.66
2022-12-28T21:36:16.053Z,99962.97
2022-12-28T21:38:47.181Z,99975.31
2022-12-28T21:41:16.005Z,99967.31
2022-12-28T21:43:42.928Z,99965.72
2022-12-28T21:46:14.547Z,99956.56
2022-12-28T21:48:41.781Z,99966.25
2022-12-28T21:51:30.807Z,99961.75
2022-12-28T21:54:03.527Z,99964.31
2022-12-28T21:56:31.531Z,99951.97
2022-12-28T21:58:58.808Z,99946.56
2022-12-28T22:01:44.925Z,99945.91
2022-12-28T22:04:33.021Z,99926.47
2022-12-28T22:07:00.732Z,99933.53
2022-12-28T22:09:46.234Z,99924.47
2022-12-28T22:12:32.678Z,99906.28
2022-12-28T22:15:20.524Z,99894.78
2022-12-28T22:17:47.550Z,99888.56
2022-12-28T22:20:15.768Z,99901.09
2022-12-28T22:22:43.283Z,99902.88
2022-12-28T22:25:11.437Z,99901.56
2022-12-28T22:27:38.661Z,99905.72
2022-12-28T22:30:06.075Z,99882.97
2022-12-28T22:32:33.099Z,99885.38
2022-12-28T22:35:02.267Z,99875.88
2022-12-28T22:37:29.236Z,99879.22
2022-12-28T22:39:55.922Z,99874.81
2022-12-28T22:42:22.622Z,99874.59
2022-12-28T22:44:49.401Z,99871.19
2022-12-28T22:47:16.548Z,99869.13
2022-12-28T22:49:43.326Z,99871.09
2022-12-28T22:52:10.305Z,99874.97
2022-12-28T22:54:39.899Z,99863.00
2022-12-28T22:57:09.641Z,99864.50
2022-12-28T22:59:36.454Z,99865.16
2022-12-28T23:02:03.465Z,99857.97
2022-12-28T23:04:30.505Z,99856.09
2022-12-28T23:07:03.143Z,99863.09
2022-12-28T23:09:33.544Z,99850.72
2022-12-28T23:12:00.422Z,99849.56
2022-12-28T23:14:45.856Z,99848.72
2022-12-28T23:17:15.111Z,99849.47
2022-12-28T23:20:01.634Z,99852.09
2022-12-28T23:22:49.156Z,99841.75
2022-12-28T23:25:39.970Z,99836.25
2022-12-28T23:28:10.955Z,99834.47
2022-12-28T23:30:42.284Z,99825.56
2022-12-28T23:33:09.201Z,99829.25
2022-12-28T23:35:36.064Z,99824.94
2022-12-28T23:38:02.891Z,99817.75
2022-12-28T23:40:29.756Z,99811.31
2022-12-28T23:42:56.625Z,99819.91
2022-12-28T23:45:23.664Z,99818.31
2022-12-28T23:47:52.493Z,99803.19
2022-12-28T23:50:22.851Z,99803.09
2022-12-28T23:52:49.716Z,99790.16
2022-12-28T23:55:16.772Z,99802.06
2022-12-28T23:57:45.844Z,99781.84
